sensor_id;sensor_type;location;lat;lon;timestamp;P1;durP1;ratioP1;P2;durP2;ratioP2
5351;SDS011;2698;51.454;6.736;2023-04-24T00:00:43;6.10;;;2.20;;
5351;SDS011;2698;51.454;6.736;2023-04-24T00:03:10;2.10;;;1.60;;
5351;SDS011;2698;51.454;6.736;2023-04-24T00:05:38;2.00;;;1.43;;
5351;SDS011;2698;51.454;6.736;2023-04-24T00:08:06;1.20;;;1.20;;
5351;SDS011;2698;51.454;6.736;2023-04-24T00:10:33;1.50;;;1.50;;
5351;SDS011;2698;51.454;6.736;2023-04-24T00:13:00;5.70;;;2.27;;
5351;SDS011;2698;51.454;6.736;2023-04-24T00:15:27;2.63;;;2.20;;
5351;SDS011;2698;51.454;6.736;2023-04-24T00:17:55;1.27;;;1.17;;
5351;SDS011;2698;51.454;6.736;2023-04-24T00:20:23;1.80;;;1.70;;
5351;SDS011;2698;51.454;6.736;2023-04-24T00:22:50;1.93;;;1.70;;
5351;SDS011;2698;51.454;6.736;2023-04-24T00:25:17;2.10;;;1.80;;
5351;SDS011;2698;51.454;6.736;2023-04-24T00:27:44;2.70;;;1.60;;
5351;SDS011;2698;51.454;6.736;2023-04-24T00:30:11;2.00;;;1.90;;
5351;SDS011;2698;51.454;6.736;2023-04-24T00:32:38;8.80;;;2.30;;
5351;SDS011;2698;51.454;6.736;2023-04-24T00:35:07;6.10;;;2.27;;
5351;SDS011;2698;51.454;6.736;2023-04-24T00:37:35;3.70;;;2.27;;
5351;SDS011;2698;51.454;6.736;2023-04-24T00:40:02;2.57;;;2.37;;
5351;SDS011;2698;51.454;6.736;2023-04-24T00:42:30;2.57;;;2.40;;
5351;SDS011;2698;51.454;6.736;2023-04-24T00:44:57;4.43;;;2.90;;
5351;SDS011;2698;51.454;6.736;2023-04-24T00:47:24;3.83;;;2.60;;
5351;SDS011;2698;51.454;6.736;2023-04-24T00:49:52;2.87;;;2.70;;
5351;SDS011;2698;51.454;6.736;2023-04-24T00:52:20;3.77;;;3.47;;
5351;SDS011;2698;51.454;6.736;2023-04-24T00:54:49;5.77;;;2.93;;
5351;SDS011;2698;51.454;6.736;2023-04-24T00:57:16;3.17;;;2.97;;
5351;SDS011;2698;51.454;6.736;2023-04-24T00:59:43;5.10;;;4.50;;
5351;SDS011;2698;51.454;6.736;2023-04-24T01:02:11;7.67;;;3.83;;
5351;SDS011;2698;51.454;6.736;2023-04-24T01:04:38;3.93;;;3.70;;
5351;SDS011;2698;51.454;6.736;2023-04-24T01:07:05;4.03;;;3.73;;
5351;SDS011;2698;51.454;6.736;2023-04-24T01:09:36;6.07;;;4.57;;
5351;SDS011;2698;51.454;6.736;2023-04-24T01:12:03;4.80;;;4.03;;
5351;SDS011;2698;51.454;6.736;2023-04-24T01:14:31;9.93;;;5.03;;
5351;SDS011;2698;51.454;6.736;2023-04-24T01:16:58;6.10;;;4.23;;
5351;SDS011;2698;51.454;6.736;2023-04-24T01:19:25;5.53;;;4.90;;
5351;SDS011;2698;51.454;6.736;2023-04-24T01:21:53;7.63;;;5.20;;
5351;SDS011;2698;51.454;6.736;2023-04-24T01:24:21;4.90;;;4.60;;
5351;SDS011;2698;51.454;6.736;2023-04-24T01:26:48;8.07;;;5.40;;
5351;SDS011;2698;51.454;6.736;2023-04-24T01:29:16;8.90;;;5.67;;
5351;SDS011;2698;51.454;6.736;2023-04-24T01:31:43;7.00;;;5.87;;
5351;SDS011;2698;51.454;6.736;2023-04-24T01:34:10;7.57;;;6.73;;
5351;SDS011;2698;51.454;6.736;2023-04-24T01:36:37;8.10;;;6.30;;
5351;SDS011;2698;51.454;6.736;2023-04-24T01:39:05;5.67;;;5.17;;
5351;SDS011;2698;51.454;6.736;2023-04-24T01:41:34;14.33;;;6.63;;
5351;SDS011;2698;51.454;6.736;2023-04-24T01:44:01;8.03;;;5.60;;
5351;SDS011;2698;51.454;6.736;2023-04-24T01:46:29;11.20;;;6.90;;
5351;SDS011;2698;51.454;6.736;2023-04-24T01:48:56;12.37;;;7.00;;
5351;SDS011;2698;51.454;6.736;2023-04-24T01:51:25;7.17;;;6.23;;
5351;SDS011;2698;51.454;6.736;2023-04-24T01:53:52;11.10;;;6.20;;
5351;SDS011;2698;51.454;6.736;2023-04-24T01:56:20;9.90;;;6.97;;
5351;SDS011;2698;51.454;6.736;2023-04-24T01:58:49;9.80;;;7.20;;
5351;SDS011;2698;51.454;6.736;2023-04-24T02:01:17;7.73;;;6.20;;
5351;SDS011;2698;51.454;6.736;2023-04-24T02:03:45;9.97;;;7.00;;
5351;SDS011;2698;51.454;6.736;2023-04-24T02:06:12;12.43;;;6.90;;
5351;SDS011;2698;51.454;6.736;2023-04-24T02:08:39;13.80;;;9.33;;
5351;SDS011;2698;51.454;6.736;2023-04-24T02:11:06;8.63;;;7.03;;
5351;SDS011;2698;51.454;6.736;2023-04-24T02:13:33;15.53;;;7.87;;
5351;SDS011;2698;51.454;6.736;2023-04-24T02:16:02;11.27;;;7.67;;
5351;SDS011;2698;51.454;6.736;2023-04-24T02:18:29;10.13;;;8.40;;
5351;SDS011;2698;51.454;6.736;2023-04-24T02:20:56;12.00;;;9.43;;
5351;SDS011;2698;51.454;6.736;2023-04-24T02:23:23;14.93;;;9.00;;
5351;SDS011;2698;51.454;6.736;2023-04-24T02:25:50;12.33;;;7.97;;
5351;SDS011;2698;51.454;6.736;2023-04-24T02:28:18;12.83;;;9.10;;
5351;SDS011;2698;51.454;6.736;2023-04-24T02:30:45;15.43;;;9.50;;
5351;SDS011;2698;51.454;6.736;2023-04-24T02:33:13;11.87;;;9.57;;
5351;SDS011;2698;51.454;6.736;2023-04-24T02:35:40;15.13;;;11.50;;
5351;SDS011;2698;51.454;6.736;2023-04-24T02:38:08;22.70;;;12.10;;
5351;SDS011;2698;51.454;6.736;2023-04-24T02:40:35;15.20;;;10.73;;
5351;SDS011;2698;51.454;6.736;2023-04-24T02:43:02;23.13;;;10.10;;
5351;SDS011;2698;51.454;6.736;2023-04-24T02:45:29;15.13;;;10.70;;
5351;SDS011;2698;51.454;6.736;2023-04-24T02:47:56;18.83;;;11.53;;
5351;SDS011;2698;51.454;6.736;2023-04-24T02:50:24;12.77;;;10.73;;
5351;SDS011;2698;51.454;6.736;2023-04-24T02:52:52;23.60;;;12.07;;
5351;SDS011;2698;51.454;6.736;2023-04-24T02:55:19;15.20;;;11.23;;
5351;SDS011;2698;51.454;6.736;2023-04-24T02:57:46;24.93;;;13.10;;
5351;SDS011;2698;51.454;6.736;2023-04-24T03:00:13;25.57;;;13.10;;
5351;SDS011;2698;51.454;6.736;2023-04-24T03:02:40;19.03;;;13.53;;
5351;SDS011;2698;51.454;6.736;2023-04-24T03:05:08;21.13;;;12.20;;
5351;SDS011;2698;51.454;6.736;2023-04-24T03:07:38;19.17;;;13.57;;
5351;SDS011;2698;51.454;6.736;2023-04-24T03:10:05;21.10;;;13.70;;
5351;SDS011;2698;51.454;6.736;2023-04-24T03:12:33;22.03;;;13.47;;
5351;SDS011;2698;51.454;6.736;2023-04-24T03:15:00;20.53;;;14.30;;
5351;SDS011;2698;51.454;6.736;2023-04-24T03:17:27;20.23;;;13.00;;
5351;SDS011;2698;51.454;6.736;2023-04-24T03:19:54;18.50;;;12.67;;
5351;SDS011;2698;51.454;6.736;2023-04-24T03:22:21;33.40;;;13.40;;
5351;SDS011;2698;51.454;6.736;2023-04-24T03:24:50;24.17;;;15.43;;
5351;SDS011;2698;51.454;6.736;2023-04-24T03:27:17;24.50;;;14.40;;
5351;SDS011;2698;51.454;6.736;2023-04-24T03:29:44;22.20;;;13.97;;
5351;SDS011;2698;51.454;6.736;2023-04-24T03:32:11;18.40;;;13.50;;
5351;SDS011;2698;51.454;6.736;2023-04-24T03:34:38;21.40;;;12.83;;
5351;SDS011;2698;51.454;6.736;2023-04-24T03:37:05;26.33;;;14.03;;
5351;SDS011;2698;51.454;6.736;2023-04-24T03:39:32;19.43;;;14.10;;
5351;SDS011;2698;51.454;6.736;2023-04-24T03:42:00;32.17;;;13.90;;
5351;SDS011;2698;51.454;6.736;2023-04-24T03:44:28;22.10;;;12.27;;
5351;SDS011;2698;51.454;6.736;2023-04-24T03:46:55;21.63;;;14.43;;
5351;SDS011;2698;51.454;6.736;2023-04-24T03:49:22;21.17;;;11.90;;
5351;SDS011;2698;51.454;6.736;2023-04-24T03:51:49;18.10;;;12.60;;
5351;SDS011;2698;51.454;6.736;2023-04-24T03:54:17;20.07;;;12.53;;
5351;SDS011;2698;51.454;6.736;2023-04-24T03:56:44;20.37;;;12.40;;
5351;SDS011;2698;51.454;6.736;2023-04-24T03:59:12;25.10;;;12.40;;
5351;SDS011;2698;51.454;6.736;2023-04-24T04:01:40;21.17;;;11.20;;
5351;SDS011;2698;51.454;6.736;2023-04-24T04:04:07;17.37;;;11.43;;
5351;SDS011;2698;51.454;6.736;2023-04-24T04:06:34;32.97;;;14.43;;
5351;SDS011;2698;51.454;6.736;2023-04-24T04:09:01;19.37;;;12.60;;
5351;SDS011;2698;51.454;6.736;2023-04-24T04:11:28;26.77;;;14.47;;
5351;SDS011;2698;51.454;6.736;2023-04-24T04:13:56;31.33;;;14.10;;
5351;SDS011;2698;51.454;6.736;2023-04-24T04:16:24;19.23;;;14.20;;
5351;SDS011;2698;51.454;6.736;2023-04-24T04:18:51;23.83;;;14.30;;
5351;SDS011;2698;51.454;6.736;2023-04-24T04:21:18;24.07;;;13.83;;
5351;SDS011;2698;51.454;6.736;2023-04-24T04:23:45;23.33;;;13.93;;
5351;SDS011;2698;51.454;6.736;2023-04-24T04:26:13;15.87;;;12.10;;
5351;SDS011;2698;51.454;6.736;2023-04-24T04:28:40;19.20;;;15.10;;
5351;SDS011;2698;51.454;6.736;2023-04-24T04:31:09;26.63;;;13.37;;
5351;SDS011;2698;51.454;6.736;2023-04-24T04:33:37;19.97;;;13.13;;
5351;SDS011;2698;51.454;6.736;2023-04-24T04:36:05;18.93;;;12.50;;
5351;SDS011;2698;51.454;6.736;2023-04-24T04:38:32;17.17;;;13.00;;
5351;SDS011;2698;51.454;6.736;2023-04-24T04:41:00;25.20;;;14.80;;
5351;SDS011;2698;51.454;6.736;2023-04-24T04:43:27;18.50;;;12.23;;
5351;SDS011;2698;51.454;6.736;2023-04-24T04:45:55;15.70;;;11.20;;
5351;SDS011;2698;51.454;6.736;2023-04-24T04:48:23;19.93;;;11.40;;
5351;SDS011;2698;51.454;6.736;2023-04-24T04:50:51;26.37;;;12.23;;
5351;SDS011;2698;51.454;6.736;2023-04-24T04:53:18;18.30;;;11.27;;
5351;SDS011;2698;51.454;6.736;2023-04-24T04:55:45;15.37;;;11.23;;
5351;SDS011;2698;51.454;6.736;2023-04-24T04:58:13;21.43;;;10.30;;
5351;SDS011;2698;51.454;6.736;2023-04-24T05:00:40;16.93;;;11.10;;
5351;SDS011;2698;51.454;6.736;2023-04-24T05:03:07;16.97;;;10.70;;
5351;SDS011;2698;51.454;6.736;2023-04-24T05:05:34;13.03;;;9.03;;
5351;SDS011;2698;51.454;6.736;2023-04-24T05:08:06;15.30;;;9.10;;
5351;SDS011;2698;51.454;6.736;2023-04-24T05:10:34;12.57;;;9.80;;
5351;SDS011;2698;51.454;6.736;2023-04-24T05:13:02;18.03;;;10.90;;
5351;SDS011;2698;51.454;6.736;2023-04-24T05:15:29;12.20;;;9.63;;
5351;SDS011;2698;51.454;6.736;2023-04-24T05:17:56;15.33;;;10.57;;
5351;SDS011;2698;51.454;6.736;2023-04-24T05:20:23;15.57;;;9.80;;
5351;SDS011;2698;51.454;6.736;2023-04-24T05:22:50;16.53;;;10.50;;
5351;SDS011;2698;51.454;6.736;2023-04-24T05:25:19;15.97;;;10.87;;
5351;SDS011;2698;51.454;6.736;2023-04-24T05:27:46;11.57;;;9.73;;
5351;SDS011;2698;51.454;6.736;2023-04-24T05:30:13;14.40;;;11.30;;
5351;SDS011;2698;51.454;6.736;2023-04-24T05:32:40;15.00;;;11.77;;
5351;SDS011;2698;51.454;6.736;2023-04-24T05:35:07;15.00;;;12.20;;
5351;SDS011;2698;51.454;6.736;2023-04-24T05:37:35;19.80;;;11.90;;
5351;SDS011;2698;51.454;6.736;2023-04-24T05:40:02;22.33;;;12.57;;
5351;SDS011;2698;51.454;6.736;2023-04-24T05:42:31;20.30;;;12.83;;
5351;SDS011;2698;51.454;6.736;2023-04-24T05:44:58;17.80;;;12.97;;
5351;SDS011;2698;51.454;6.736;2023-04-24T05:47:25;13.70;;;12.00;;
5351;SDS011;2698;51.454;6.736;2023-04-24T05:49:53;20.17;;;13.10;;
5351;SDS011;2698;51.454;6.736;2023-04-24T05:52:20;19.13;;;12.20;;
5351;SDS011;2698;51.454;6.736;2023-04-24T05:54:47;14.30;;;12.87;;
5351;SDS011;2698;51.454;6.736;2023-04-24T05:57:14;14.73;;;11.07;;
5351;SDS011;2698;51.454;6.736;2023-04-24T05:59:42;16.43;;;12.23;;
5351;SDS011;2698;51.454;6.736;2023-04-24T06:02:10;21.80;;;13.53;;
5351;SDS011;2698;51.454;6.736;2023-04-24T06:04:37;15.27;;;11.70;;
5351;SDS011;2698;51.454;6.736;2023-04-24T06:07:04;14.77;;;13.23;;
5351;SDS011;2698;51.454;6.736;2023-04-24T06:09:32;17.83;;;13.80;;
5351;SDS011;2698;51.454;6.736;2023-04-24T06:11:59;15.33;;;12.20;;
5351;SDS011;2698;51.454;6.736;2023-04-24T06:14:26;20.23;;;12.50;;
5351;SDS011;2698;51.454;6.736;2023-04-24T06:16:54;24.10;;;13.03;;
5351;SDS011;2698;51.454;6.736;2023-04-24T06:19:21;23.67;;;15.00;;
5351;SDS011;2698;51.454;6.736;2023-04-24T06:21:48;14.13;;;12.70;;
5351;SDS011;2698;51.454;6.736;2023-04-24T06:24:15;19.67;;;15.10;;
5351;SDS011;2698;51.454;6.736;2023-04-24T06:26:43;14.70;;;11.53;;
5351;SDS011;2698;51.454;6.736;2023-04-24T06:29:10;13.77;;;12.20;;
5351;SDS011;2698;51.454;6.736;2023-04-24T06:31:37;16.83;;;12.63;;
5351;SDS011;2698;51.454;6.736;2023-04-24T06:34:05;17.40;;;12.17;;
5351;SDS011;2698;51.454;6.736;2023-04-24T06:36:32;13.70;;;11.50;;
5351;SDS011;2698;51.454;6.736;2023-04-24T06:39:00;26.20;;;11.30;;
5351;SDS011;2698;51.454;6.736;2023-04-24T06:41:27;11.10;;;9.37;;
5351;SDS011;2698;51.454;6.736;2023-04-24T06:43:55;10.03;;;9.03;;
5351;SDS011;2698;51.454;6.736;2023-04-24T06:46:22;14.43;;;10.07;;
5351;SDS011;2698;51.454;6.736;2023-04-24T06:48:51;13.03;;;10.57;;
5351;SDS011;2698;51.454;6.736;2023-04-24T06:51:21;12.10;;;9.27;;
5351;SDS011;2698;51.454;6.736;2023-04-24T06:53:49;11.43;;;7.27;;
5351;SDS011;2698;51.454;6.736;2023-04-24T06:56:16;7.40;;;6.70;;
5351;SDS011;2698;51.454;6.736;2023-04-24T06:58:43;6.97;;;6.37;;
5351;SDS011;2698;51.454;6.736;2023-04-24T07:01:10;6.60;;;6.00;;
5351;SDS011;2698;51.454;6.736;2023-04-24T07:03:37;7.77;;;6.00;;
5351;SDS011;2698;51.454;6.736;2023-04-24T07:06:05;6.47;;;5.13;;
5351;SDS011;2698;51.454;6.736;2023-04-24T07:08:33;10.20;;;5.97;;
5351;SDS011;2698;51.454;6.736;2023-04-24T07:11:00;6.20;;;5.70;;
5351;SDS011;2698;51.454;6.736;2023-04-24T07:13:28;5.87;;;5.40;;
5351;SDS011;2698;51.454;6.736;2023-04-24T07:15:55;3.50;;;3.00;;
5351;SDS011;2698;51.454;6.736;2023-04-24T07:18:22;3.77;;;3.43;;
5351;SDS011;2698;51.454;6.736;2023-04-24T07:20:49;3.93;;;2.53;;
5351;SDS011;2698;51.454;6.736;2023-04-24T07:23:17;2.93;;;2.73;;
5351;SDS011;2698;51.454;6.736;2023-04-24T07:25:45;5.40;;;3.33;;
5351;SDS011;2698;51.454;6.736;2023-04-24T07:28:13;2.97;;;2.70;;
5351;SDS011;2698;51.454;6.736;2023-04-24T07:30:40;2.70;;;2.37;;
5351;SDS011;2698;51.454;6.736;2023-04-24T07:33:07;2.60;;;2.40;;
5351;SDS011;2698;51.454;6.736;2023-04-24T07:35:36;2.13;;;1.93;;
5351;SDS011;2698;51.454;6.736;2023-04-24T07:38:03;2.47;;;2.37;;
5351;SDS011;2698;51.454;6.736;2023-04-24T07:40:30;3.07;;;1.80;;
5351;SDS011;2698;51.454;6.736;2023-04-24T07:42:59;2.40;;;1.77;;
5351;SDS011;2698;51.454;6.736;2023-04-24T07:45:26;1.50;;;1.40;;
5351;SDS011;2698;51.454;6.736;2023-04-24T07:47:53;1.53;;;1.43;;
5351;SDS011;2698;51.454;6.736;2023-04-24T07:50:20;1.40;;;1.40;;
5351;SDS011;2698;51.454;6.736;2023-04-24T07:52:47;2.13;;;1.70;;
5351;SDS011;2698;51.454;6.736;2023-04-24T07:55:15;1.20;;;1.20;;
5351;SDS011;2698;51.454;6.736;2023-04-24T07:57:42;1.10;;;1.10;;
5351;SDS011;2698;51.454;6.736;2023-04-24T08:00:11;2.93;;;1.90;;
5351;SDS011;2698;51.454;6.736;2023-04-24T08:02:38;2.33;;;1.87;;
5351;SDS011;2698;51.454;6.736;2023-04-24T08:05:06;1.93;;;1.77;;
5351;SDS011;2698;51.454;6.736;2023-04-24T08:07:33;2.63;;;1.80;;
5351;SDS011;2698;51.454;6.736;2023-04-24T08:10:01;2.03;;;1.93;;
5351;SDS011;2698;51.454;6.736;2023-04-24T08:12:28;2.13;;;2.03;;
5351;SDS011;2698;51.454;6.736;2023-04-24T08:14:55;2.20;;;1.77;;
5351;SDS011;2698;51.454;6.736;2023-04-24T08:17:23;3.40;;;2.53;;
5351;SDS011;2698;51.454;6.736;2023-04-24T08:19:50;4.27;;;2.90;;
5351;SDS011;2698;51.454;6.736;2023-04-24T08:22:24;4.10;;;3.60;;
5351;SDS011;2698;51.454;6.736;2023-04-24T08:24:51;5.43;;;2.50;;
5351;SDS011;2698;51.454;6.736;2023-04-24T08:27:18;3.70;;;2.37;;
5351;SDS011;2698;51.454;6.736;2023-04-24T08:29:45;3.80;;;2.20;;
5351;SDS011;2698;51.454;6.736;2023-04-24T08:32:12;2.97;;;1.97;;
5351;SDS011;2698;51.454;6.736;2023-04-24T08:34:41;4.93;;;1.53;;
5351;SDS011;2698;51.454;6.736;2023-04-24T08:37:08;2.10;;;2.00;;
5351;SDS011;2698;51.454;6.736;2023-04-24T08:39:36;1.40;;;1.30;;
5351;SDS011;2698;51.454;6.736;2023-04-24T08:42:04;1.97;;;1.50;;
5351;SDS011;2698;51.454;6.736;2023-04-24T08:44:33;1.53;;;1.50;;
5351;SDS011;2698;51.454;6.736;2023-04-24T08:47:00;1.50;;;1.40;;
5351;SDS011;2698;51.454;6.736;2023-04-24T08:49:28;1.80;;;1.70;;
5351;SDS011;2698;51.454;6.736;2023-04-24T08:51:56;1.10;;;1.10;;
5351;SDS011;2698;51.454;6.736;2023-04-24T08:54:24;2.37;;;2.20;;
5351;SDS011;2698;51.454;6.736;2023-04-24T08:56:51;1.27;;;1.27;;
5351;SDS011;2698;51.454;6.736;2023-04-24T08:59:20;1.40;;;1.40;;
5351;SDS011;2698;51.454;6.736;2023-04-24T09:01:48;2.00;;;1.90;;
5351;SDS011;2698;51.454;6.736;2023-04-24T09:04:16;2.30;;;2.20;;
5351;SDS011;2698;51.454;6.736;2023-04-24T09:06:45;3.43;;;3.20;;
5351;SDS011;2698;51.454;6.736;2023-04-24T09:09:13;8.47;;;5.47;;
5351;SDS011;2698;51.454;6.736;2023-04-24T09:11:42;10.03;;;6.87;;
5351;SDS011;2698;51.454;6.736;2023-04-24T09:14:09;12.63;;;8.80;;
5351;SDS011;2698;51.454;6.736;2023-04-24T09:16:36;18.27;;;7.50;;
5351;SDS011;2698;51.454;6.736;2023-04-24T09:19:03;8.73;;;7.67;;
5351;SDS011;2698;51.454;6.736;2023-04-24T09:21:31;9.20;;;8.30;;
5351;SDS011;2698;51.454;6.736;2023-04-24T09:23:59;10.77;;;8.77;;
5351;SDS011;2698;51.454;6.736;2023-04-24T09:26:29;10.87;;;7.00;;
5351;SDS011;2698;51.454;6.736;2023-04-24T09:29:00;8.53;;;6.20;;
5351;SDS011;2698;51.454;6.736;2023-04-24T09:31:27;7.83;;;6.90;;
5351;SDS011;2698;51.454;6.736;2023-04-24T09:33:55;7.67;;;6.87;;
5351;SDS011;2698;51.454;6.736;2023-04-24T09:36:28;10.73;;;6.67;;
5351;SDS011;2698;51.454;6.736;2023-04-24T09:38:58;11.50;;;8.27;;
5351;SDS011;2698;51.454;6.736;2023-04-24T09:41:25;11.40;;;8.50;;
5351;SDS011;2698;51.454;6.736;2023-04-24T09:43:55;10.10;;;8.63;;
5351;SDS011;2698;51.454;6.736;2023-04-24T09:46:29;12.10;;;8.47;;
5351;SDS011;2698;51.454;6.736;2023-04-24T09:48:56;13.80;;;7.53;;
5351;SDS011;2698;51.454;6.736;2023-04-24T09:51:33;10.80;;;8.10;;
5351;SDS011;2698;51.454;6.736;2023-04-24T09:54:02;10.40;;;8.50;;
5351;SDS011;2698;51.454;6.736;2023-04-24T09:56:32;10.60;;;8.07;;
5351;SDS011;2698;51.454;6.736;2023-04-24T09:59:05;16.93;;;8.30;;
5351;SDS011;2698;51.454;6.736;2023-04-24T10:01:32;13.73;;;8.87;;
5351;SDS011;2698;51.454;6.736;2023-04-24T10:03:59;12.60;;;8.80;;
5351;SDS011;2698;51.454;6.736;2023-04-24T10:06:31;13.80;;;7.83;;
5351;SDS011;2698;51.454;6.736;2023-04-24T10:08:58;13.13;;;7.80;;
5351;SDS011;2698;51.454;6.736;2023-04-24T10:11:26;14.60;;;6.77;;
5351;SDS011;2698;51.454;6.736;2023-04-24T10:13:53;10.23;;;6.17;;
5351;SDS011;2698;51.454;6.736;2023-04-24T10:16:23;17.50;;;6.90;;
5351;SDS011;2698;51.454;6.736;2023-04-24T10:18:52;15.33;;;6.83;;
5351;SDS011;2698;51.454;6.736;2023-04-24T10:21:19;16.33;;;6.53;;
5351;SDS011;2698;51.454;6.736;2023-04-24T10:23:46;11.73;;;5.90;;
5351;SDS011;2698;51.454;6.736;2023-04-24T10:26:15;10.70;;;5.80;;
5351;SDS011;2698;51.454;6.736;2023-04-24T10:28:44;11.70;;;6.40;;
5351;SDS011;2698;51.454;6.736;2023-04-24T10:31:12;12.80;;;6.40;;
5351;SDS011;2698;51.454;6.736;2023-04-24T10:33:41;14.70;;;5.90;;
5351;SDS011;2698;51.454;6.736;2023-04-24T10:36:09;12.00;;;5.40;;
5351;SDS011;2698;51.454;6.736;2023-04-24T10:38:36;14.37;;;6.53;;
5351;SDS011;2698;51.454;6.736;2023-04-24T10:41:08;9.93;;;6.00;;
5351;SDS011;2698;51.454;6.736;2023-04-24T10:43:40;20.00;;;7.70;;
5351;SDS011;2698;51.454;6.736;2023-04-24T10:46:08;18.73;;;6.70;;
5351;SDS011;2698;51.454;6.736;2023-04-24T10:48:36;20.70;;;6.00;;
5351;SDS011;2698;51.454;6.736;2023-04-24T10:51:12;14.20;;;5.40;;
5351;SDS011;2698;51.454;6.736;2023-04-24T10:53:39;18.67;;;4.30;;
5351;SDS011;2698;51.454;6.736;2023-04-24T10:56:08;13.60;;;5.20;;
5351;SDS011;2698;51.454;6.736;2023-04-24T10:58:36;21.20;;;6.30;;
5351;SDS011;2698;51.454;6.736;2023-04-24T11:01:05;17.80;;;5.70;;
5351;SDS011;2698;51.454;6.736;2023-04-24T11:03:33;10.57;;;5.90;;
5351;SDS011;2698;51.454;6.736;2023-04-24T11:06:01;26.10;;;6.30;;
5351;SDS011;2698;51.454;6.736;2023-04-24T11:08:31;14.67;;;6.30;;
5351;SDS011;2698;51.454;6.736;2023-04-24T11:10:59;15.70;;;6.47;;
5351;SDS011;2698;51.454;6.736;2023-04-24T11:13:28;13.73;;;6.30;;
5351;SDS011;2698;51.454;6.736;2023-04-24T11:16:16;19.23;;;7.13;;
5351;SDS011;2698;51.454;6.736;2023-04-24T11:18:49;22.60;;;6.90;;
5351;SDS011;2698;51.454;6.736;2023-04-24T11:21:19;20.90;;;6.17;;
5351;SDS011;2698;51.454;6.736;2023-04-24T11:23:46;17.07;;;5.70;;
5351;SDS011;2698;51.454;6.736;2023-04-24T11:26:17;14.53;;;5.20;;
5351;SDS011;2698;51.454;6.736;2023-04-24T11:28:44;9.90;;;4.73;;
5351;SDS011;2698;51.454;6.736;2023-04-24T11:34:02;10.83;;;4.33;;
5351;SDS011;2698;51.454;6.736;2023-04-24T11:36:32;14.13;;;4.30;;
5351;SDS011;2698;51.454;6.736;2023-04-24T11:38:59;7.63;;;4.07;;
5351;SDS011;2698;51.454;6.736;2023-04-24T11:41:26;20.20;;;5.30;;
5351;SDS011;2698;51.454;6.736;2023-04-24T11:43:53;17.93;;;4.90;;
5351;SDS011;2698;51.454;6.736;2023-04-24T11:46:22;8.80;;;4.60;;
5351;SDS011;2698;51.454;6.736;2023-04-24T11:48:49;23.40;;;4.40;;
5351;SDS011;2698;51.454;6.736;2023-04-24T11:51:17;14.80;;;5.53;;
5351;SDS011;2698;51.454;6.736;2023-04-24T11:53:44;8.93;;;4.97;;
5351;SDS011;2698;51.454;6.736;2023-04-24T11:56:11;11.87;;;4.43;;
5351;SDS011;2698;51.454;6.736;2023-04-24T11:58:38;10.93;;;4.30;;
5351;SDS011;2698;51.454;6.736;2023-04-24T12:01:06;16.67;;;5.13;;
5351;SDS011;2698;51.454;6.736;2023-04-24T12:03:33;14.63;;;4.90;;
5351;SDS011;2698;51.454;6.736;2023-04-24T12:06:06;9.47;;;4.40;;
5351;SDS011;2698;51.454;6.736;2023-04-24T12:08:35;12.73;;;4.17;;
5351;SDS011;2698;51.454;6.736;2023-04-24T12:11:02;11.83;;;4.57;;
5351;SDS011;2698;51.454;6.736;2023-04-24T12:13:31;6.13;;;4.47;;
5351;SDS011;2698;51.454;6.736;2023-04-24T12:15:59;9.43;;;4.10;;
5351;SDS011;2698;51.454;6.736;2023-04-24T12:18:26;5.80;;;3.97;;
5351;SDS011;2698;51.454;6.736;2023-04-24T12:20:53;7.60;;;3.80;;
5351;SDS011;2698;51.454;6.736;2023-04-24T12:23:33;5.83;;;3.60;;
5351;SDS011;2698;51.454;6.736;2023-04-24T12:26:03;9.13;;;3.87;;
5351;SDS011;2698;51.454;6.736;2023-04-24T12:28:34;6.47;;;2.97;;
5351;SDS011;2698;51.454;6.736;2023-04-24T12:31:02;7.87;;;3.13;;
5351;SDS011;2698;51.454;6.736;2023-04-24T12:33:32;7.10;;;2.80;;
5351;SDS011;2698;51.454;6.736;2023-04-24T12:35:59;6.70;;;2.67;;
5351;SDS011;2698;51.454;6.736;2023-04-24T12:38:27;6.83;;;2.60;;
5351;SDS011;2698;51.454;6.736;2023-04-24T12:41:03;2.50;;;2.30;;
5351;SDS011;2698;51.454;6.736;2023-04-24T12:43:30;4.33;;;2.43;;
5351;SDS011;2698;51.454;6.736;2023-04-24T12:45:57;5.93;;;2.43;;
5351;SDS011;2698;51.454;6.736;2023-04-24T12:48:24;3.10;;;2.80;;
5351;SDS011;2698;51.454;6.736;2023-04-24T12:50:52;5.30;;;3.10;;
5351;SDS011;2698;51.454;6.736;2023-04-24T12:53:20;2.50;;;1.90;;
5351;SDS011;2698;51.454;6.736;2023-04-24T12:55:47;3.47;;;2.30;;
5351;SDS011;2698;51.454;6.736;2023-04-24T12:58:19;6.20;;;2.10;;
5351;SDS011;2698;51.454;6.736;2023-04-24T13:00:47;5.30;;;1.53;;
5351;SDS011;2698;51.454;6.736;2023-04-24T13:03:14;6.90;;;2.10;;
5351;SDS011;2698;51.454;6.736;2023-04-24T13:05:41;4.27;;;2.23;;
5351;SDS011;2698;51.454;6.736;2023-04-24T13:08:08;3.93;;;2.30;;
5351;SDS011;2698;51.454;6.736;2023-04-24T13:10:35;14.20;;;2.87;;
5351;SDS011;2698;51.454;6.736;2023-04-24T13:13:02;2.83;;;1.90;;
5351;SDS011;2698;51.454;6.736;2023-04-24T13:15:31;4.17;;;1.90;;
5351;SDS011;2698;51.454;6.736;2023-04-24T13:17:58;3.20;;;1.90;;
5351;SDS011;2698;51.454;6.736;2023-04-24T13:20:25;7.47;;;3.60;;
5351;SDS011;2698;51.454;6.736;2023-04-24T13:22:52;4.20;;;2.13;;
5351;SDS011;2698;51.454;6.736;2023-04-24T13:25:19;2.97;;;1.70;;
5351;SDS011;2698;51.454;6.736;2023-04-24T13:27:48;5.27;;;1.80;;
5351;SDS011;2698;51.454;6.736;2023-04-24T13:30:15;10.37;;;2.37;;
5351;SDS011;2698;51.454;6.736;2023-04-24T13:32:44;5.67;;;2.80;;
5351;SDS011;2698;51.454;6.736;2023-04-24T13:35:11;5.17;;;1.80;;
5351;SDS011;2698;51.454;6.736;2023-04-24T13:37:38;4.90;;;2.20;;
5351;SDS011;2698;51.454;6.736;2023-04-24T13:40:06;6.77;;;2.43;;
5351;SDS011;2698;51.454;6.736;2023-04-24T13:42:33;5.73;;;2.20;;
5351;SDS011;2698;51.454;6.736;2023-04-24T13:45:00;3.37;;;2.03;;
5351;SDS011;2698;51.454;6.736;2023-04-24T13:47:28;1.90;;;1.70;;
5351;SDS011;2698;51.454;6.736;2023-04-24T13:49:56;9.00;;;1.97;;
5351;SDS011;2698;51.454;6.736;2023-04-24T13:52:24;3.30;;;1.80;;
5351;SDS011;2698;51.454;6.736;2023-04-24T13:54:51;2.57;;;1.53;;
5351;SDS011;2698;51.454;6.736;2023-04-24T13:57:18;1.60;;;1.50;;
5351;SDS011;2698;51.454;6.736;2023-04-24T13:59:45;6.03;;;2.13;;
5351;SDS011;2698;51.454;6.736;2023-04-24T14:02:12;5.43;;;2.20;;
5351;SDS011;2698;51.454;6.736;2023-04-24T14:04:40;3.70;;;1.70;;
5351;SDS011;2698;51.454;6.736;2023-04-24T14:07:08;7.30;;;2.90;;
5351;SDS011;2698;51.454;6.736;2023-04-24T14:09:35;4.37;;;1.73;;
5351;SDS011;2698;51.454;6.736;2023-04-24T14:12:02;5.77;;;2.70;;
5351;SDS011;2698;51.454;6.736;2023-04-24T14:14:29;2.50;;;1.77;;
5351;SDS011;2698;51.454;6.736;2023-04-24T14:16:56;4.00;;;1.80;;
5351;SDS011;2698;51.454;6.736;2023-04-24T14:19:24;7.70;;;2.13;;
5351;SDS011;2698;51.454;6.736;2023-04-24T14:21:51;3.63;;;2.43;;
5351;SDS011;2698;51.454;6.736;2023-04-24T14:24:20;4.40;;;1.57;;
5351;SDS011;2698;51.454;6.736;2023-04-24T14:26:47;2.17;;;1.90;;
5351;SDS011;2698;51.454;6.736;2023-04-24T14:29:14;7.03;;;2.33;;
5351;SDS011;2698;51.454;6.736;2023-04-24T14:31:41;11.67;;;2.30;;
5351;SDS011;2698;51.454;6.736;2023-04-24T14:34:08;2.20;;;1.80;;
5351;SDS011;2698;51.454;6.736;2023-04-24T14:36:36;3.80;;;2.20;;
5351;SDS011;2698;51.454;6.736;2023-04-24T14:39:03;5.70;;;1.77;;
5351;SDS011;2698;51.454;6.736;2023-04-24T14:41:33;5.67;;;2.77;;
5351;SDS011;2698;51.454;6.736;2023-04-24T14:44:02;3.03;;;2.53;;
5351;SDS011;2698;51.454;6.736;2023-04-24T14:46:29;9.67;;;3.07;;
5351;SDS011;2698;51.454;6.736;2023-04-24T14:48:57;4.27;;;3.40;;
5351;SDS011;2698;51.454;6.736;2023-04-24T14:51:24;8.90;;;2.80;;
5351;SDS011;2698;51.454;6.736;2023-04-24T14:53:51;8.23;;;2.90;;
5351;SDS011;2698;51.454;6.736;2023-04-24T14:56:18;3.90;;;3.10;;
5351;SDS011;2698;51.454;6.736;2023-04-24T14:58:47;4.00;;;2.53;;
5351;SDS011;2698;51.454;6.736;2023-04-24T15:01:14;3.07;;;2.33;;
5351;SDS011;2698;51.454;6.736;2023-04-24T15:03:41;3.37;;;2.53;;
5351;SDS011;2698;51.454;6.736;2023-04-24T15:06:08;3.60;;;2.47;;
5351;SDS011;2698;51.454;6.736;2023-04-24T15:08:35;1.80;;;1.70;;
5351;SDS011;2698;51.454;6.736;2023-04-24T15:11:02;7.60;;;2.30;;